createdAt,value
2023-05-23T00:00:33.759Z,264.67
2023-05-23T00:01:38.440Z,407.55
2023-05-23T00:02:43.203Z,340.00
2023-05-23T00:03:49.657Z,368.95
2023-05-23T00:04:52.718Z,393.70
2023-05-23T00:05:59.263Z,331.25
2023-05-23T00:07:01.323Z,338.73
2023-05-23T00:08:06.588Z,334.58
2023-05-23T00:09:08.714Z,266.48
2023-05-23T00:10:14.326Z,397.85
2023-05-23T00:11:16.733Z,319.83
2023-05-23T00:12:21.447Z,319.90
2023-05-23T00:13:23.596Z,338.00
2023-05-23T00:14:28.314Z,273.02
2023-05-23T00:15:31.218Z,320.35
2023-05-23T00:16:41.445Z,372.95
2023-05-23T00:17:47.187Z,352.23
2023-05-23T00:18:52.291Z,313.65
2023-05-23T00:19:56.352Z,371.25
2023-05-23T00:21:02.556Z,293.13
2023-05-23T00:22:05.728Z,303.27
2023-05-23T00:23:10.908Z,346.92
2023-05-23T00:24:13.257Z,310.98
2023-05-23T00:25:17.955Z,296.92
2023-05-23T00:26:20.005Z,328.75
2023-05-23T00:27:24.685Z,308.98
2023-05-23T00:28:27.372Z,219.07
2023-05-23T00:29:32.105Z,274.80
2023-05-23T00:30:34.666Z,365.85
2023-05-23T00:31:39.868Z,331.65
2023-05-23T00:32:42.234Z,359.00
2023-05-23T00:33:49.555Z,351.40
2023-05-23T00:34:54.448Z,389.35
2023-05-23T00:35:59.109Z,364.38
2023-05-23T00:37:02.434Z,322.58
2023-05-23T00:38:07.973Z,254.20
2023-05-23T00:39:10.169Z,294.90
2023-05-23T00:40:15.661Z,277.25
2023-05-23T00:41:18.836Z,286.45
2023-05-23T00:42:23.524Z,293.75
2023-05-23T00:43:25.954Z,257.63
2023-05-23T00:44:30.957Z,281.30
2023-05-23T00:45:33.051Z,284.35
2023-05-23T00:46:37.789Z,262.77
2023-05-23T00:47:40.468Z,322.67
2023-05-23T00:48:45.772Z,323.38
2023-05-23T00:49:50.556Z,322.73
2023-05-23T00:50:55.988Z,394.60
2023-05-23T00:51:58.354Z,330.35
2023-05-23T00:53:04.266Z,280.25
2023-05-23T00:54:07.357Z,301.10
2023-05-23T00:55:13.500Z,380.08
2023-05-23T00:56:15.732Z,321.75
2023-05-23T00:57:20.813Z,458.10
2023-05-23T00:58:23.719Z,491.42
2023-05-23T00:59:29.439Z,467.48
2023-05-23T01:00:34.385Z,413.98
2023-05-23T01:01:40.487Z,434.88
2023-05-23T01:02:45.410Z,416.05
2023-05-23T01:03:50.383Z,413.17
2023-05-23T01:04:55.987Z,424.30
2023-05-23T01:06:00.657Z,393.05
2023-05-23T01:07:02.965Z,351.08
2023-05-23T01:08:08.568Z,375.58
2023-05-23T01:09:10.736Z,327.92
2023-05-23T01:10:16.344Z,379.63
2023-05-23T01:11:28.356Z,340.25
2023-05-23T01:12:44.076Z,308.30
2023-05-23T01:13:53.382Z,330.95
2023-05-23T01:15:06.773Z,371.85
2023-05-23T01:16:14.614Z,377.45
2023-05-23T01:17:25.947Z,352.88
2023-05-23T01:18:33.721Z,307.00
2023-05-23T01:20:09.379Z,312.60
2023-05-23T01:21:16.324Z,294.50
2023-05-23T01:22:31.278Z,308.63
2023-05-23T01:24:06.655Z,350.65
2023-05-23T01:25:31.386Z,288.38
2023-05-23T01:26:45.031Z,280.73
2023-05-23T01:27:58.212Z,344.73
2023-05-23T01:29:10.365Z,312.35
2023-05-23T01:30:18.276Z,311.98
2023-05-23T01:31:22.346Z,302.40
2023-05-23T01:32:30.187Z,309.05
2023-05-23T01:33:33.462Z,314.55
2023-05-23T01:34:38.402Z,327.70
2023-05-23T01:35:40.864Z,324.90
2023-05-23T01:36:46.911Z,340.10
2023-05-23T01:37:48.986Z,515.10
2023-05-23T01:38:53.656Z,399.13
2023-05-23T01:39:55.973Z,384.98
2023-05-23T01:41:00.760Z,378.70
2023-05-23T01:42:03.355Z,393.80
2023-05-23T01:43:11.047Z,363.42
2023-05-23T01:44:13.442Z,319.90
2023-05-23T01:45:19.563Z,381.58
2023-05-23T01:46:22.748Z,380.35
2023-05-23T01:47:27.601Z,324.33
2023-05-23T01:48:30.610Z,323.27
2023-05-23T01:49:38.282Z,323.95
2023-05-23T01:50:41.179Z,360.52
2023-05-23T01:51:45.870Z,372.85
2023-05-23T01:52:48.342Z,453.58
2023-05-23T01:53:53.885Z,425.90
2023-05-23T01:54:56.825Z,463.90
2023-05-23T01:56:03.770Z,440.27
2023-05-23T01:57:06.584Z,391.75
2023-05-23T01:58:14.177Z,405.92
2023-05-23T01:59:16.309Z,418.67
2023-05-23T02:00:21.507Z,422.80
2023-05-23T02:01:23.858Z,399.85
2023-05-23T02:02:28.790Z,404.15
2023-05-23T02:03:31.062Z,437.85
2023-05-23T02:04:35.829Z,431.77
2023-05-23T02:05:38.052Z,427.75
2023-05-23T02:06:42.888Z,419.60
2023-05-23T02:07:44.986Z,483.83
2023-05-23T02:08:49.666Z,477.45
2023-05-23T02:09:52.068Z,465.90
2023-05-23T02:10:56.749Z,477.67
2023-05-23T02:11:59.816Z,405.38
2023-05-23T02:13:04.488Z,470.90
2023-05-23T02:14:11.380Z,502.42
2023-05-23T02:15:17.601Z,462.00
2023-05-23T02:16:19.822Z,621.65
2023-05-23T02:17:25.012Z,526.75
2023-05-23T02:18:29.486Z,482.45
2023-05-23T02:19:34.272Z,538.60
2023-05-23T02:20:36.596Z,481.10
2023-05-23T02:21:41.508Z,538.47
2023-05-23T02:22:43.606Z,546.63
2023-05-23T02:23:48.347Z,542.78
2023-05-23T02:24:50.625Z,522.05
2023-05-23T02:25:55.404Z,489.45
2023-05-23T02:26:57.473Z,530.40
2023-05-23T02:28:02.179Z,523.35
2023-05-23T02:29:04.289Z,486.58
2023-05-23T02:30:13.106Z,489.63
2023-05-23T02:31:15.279Z,462.67
2023-05-23T02:32:20.073Z,464.38
2023-05-23T02:33:22.280Z,476.85
2023-05-23T02:34:27.059Z,492.70
2023-05-23T02:35:29.114Z,447.23
2023-05-23T02:36:34.606Z,452.67
2023-05-23T02:37:36.741Z,414.60
2023-05-23T02:38:41.459Z,472.52
2023-05-23T02:39:43.848Z,452.45
2023-05-23T02:40:50.704Z,457.17
2023-05-23T02:41:52.846Z,480.58
2023-05-23T02:42:57.615Z,505.27
2023-05-23T02:43:59.950Z,467.90
2023-05-23T02:45:04.778Z,454.40
2023-05-23T02:46:09.739Z,432.60
2023-05-23T02:47:14.424Z,441.73
2023-05-23T02:48:16.824Z,432.58
2023-05-23T02:49:21.679Z,410.48
2023-05-23T02:50:23.952Z,415.25
2023-05-23T02:51:29.019Z,387.88
2023-05-23T02:52:31.105Z,363.25
2023-05-23T02:53:36.797Z,423.92
2023-05-23T02:54:38.896Z,405.05
2023-05-23T02:55:43.598Z,417.23
2023-05-23T02:56:46.459Z,435.08
2023-05-23T02:57:51.445Z,487.73
2023-05-23T02:58:53.626Z,428.40
2023-05-23T02:59:58.331Z,446.83
2023-05-23T03:01:00.397Z,467.15
2023-05-23T03:02:08.045Z,451.08
2023-05-23T03:03:10.404Z,450.00
2023-05-23T03:04:15.111Z,425.70
2023-05-23T03:05:17.489Z,437.90
2023-05-23T03:06:22.857Z,447.88
2023-05-23T03:07:28.595Z,451.55
2023-05-23T03:08:33.950Z,446.20
2023-05-23T03:09:36.246Z,466.85
2023-05-23T03:10:41.065Z,539.58
2023-05-23T03:11:43.325Z,484.60
2023-05-23T03:12:48.098Z,469.40
2023-05-23T03:13:50.308Z,547.42
2023-05-23T03:14:55.117Z,514.22
2023-05-23T03:15:57.442Z,532.47
2023-05-23T03:17:04.293Z,537.10
2023-05-23T03:18:09.441Z,486.58
2023-05-23T03:19:14.344Z,497.95
2023-05-23T03:20:16.907Z,546.22
2023-05-23T03:21:21.687Z,497.38
2023-05-23T03:22:23.893Z,567.25
2023-05-23T03:23:28.742Z,521.22
2023-05-23T03:24:32.259Z,518.28
2023-05-23T03:25:37.062Z,548.95
2023-05-23T03:26:39.466Z,512.53
2023-05-23T03:27:44.391Z,529.00
2023-05-23T03:28:46.631Z,563.95
2023-05-23T03:29:51.748Z,547.63
2023-05-23T03:30:54.029Z,574.20
2023-05-23T03:31:58.860Z,603.33
2023-05-23T03:33:02.265Z,573.92
2023-05-23T03:34:09.686Z,585.85
2023-05-23T03:35:11.989Z,522.15
2023-05-23T03:36:16.802Z,536.78
2023-05-23T03:37:19.010Z,531.60
2023-05-23T03:38:23.848Z,526.35
2023-05-23T03:39:26.146Z,530.80
2023-05-23T03:40:30.958Z,523.67
2023-05-23T03:41:33.174Z,547.67
2023-05-23T03:42:39.675Z,555.33
2023-05-23T03:43:41.936Z,519.47
2023-05-23T03:44:46.724Z,521.00
2023-05-23T03:45:48.932Z,556.35
2023-05-23T03:46:53.792Z,538.70
2023-05-23T03:47:56.011Z,575.40
2023-05-23T03:49:00.864Z,599.78
2023-05-23T03:50:06.726Z,550.25
2023-05-23T03:51:11.543Z,498.67
2023-05-23T03:52:13.804Z,584.28
2023-05-23T03:53:18.648Z,528.17
2023-05-23T03:54:20.854Z,521.78
2023-05-23T03:55:25.798Z,500.85
2023-05-23T03:56:28.009Z,504.33
2023-05-23T03:57:32.774Z,520.67
2023-05-23T03:58:35.080Z,529.38
2023-05-23T03:59:39.897Z,537.17
2023-05-23T04:00:44.703Z,556.30
2023-05-23T04:01:47.181Z,550.63
2023-05-23T04:02:52.833Z,576.15
2023-05-23T04:03:55.281Z,556.42
2023-05-23T04:05:01.004Z,583.40
2023-05-23T04:06:06.193Z,554.42
2023-05-23T04:07:11.589Z,506.45
2023-05-23T04:08:13.890Z,539.08
2023-05-23T04:09:18.673Z,554.80
2023-05-23T04:10:21.068Z,535.50
2023-05-23T04:11:25.889Z,535.65
2023-05-23T04:12:30.916Z,556.80
2023-05-23T04:13:35.818Z,573.85
2023-05-23T04:14:39.679Z,549.40
2023-05-23T04:15:45.347Z,566.17
2023-05-23T04:16:48.547Z,558.47
2023-05-23T04:17:53.574Z,565.83
2023-05-23T04:18:55.897Z,760.67
2023-05-23T04:20:01.284Z,584.08
2023-05-23T04:21:06.730Z,581.35
2023-05-23T04:22:11.518Z,531.13
2023-05-23T04:23:13.857Z,543.00
2023-05-23T04:24:18.531Z,528.83
2023-05-23T04:25:21.097Z,546.75
2023-05-23T04:26:25.868Z,504.85
2023-05-23T04:27:27.920Z,525.10
2023-05-23T04:28:32.602Z,521.78
2023-05-23T04:29:36.258Z,563.78
2023-05-23T04:30:41.185Z,506.65
2023-05-23T04:31:46.360Z,504.42
2023-05-23T04:32:51.365Z,617.13
2023-05-23T04:33:53.505Z,551.13
2023-05-23T04:34:58.961Z,551.75
2023-05-23T04:36:01.789Z,608.65
2023-05-23T04:37:09.956Z,544.35
2023-05-23T04:38:13.839Z,489.67
2023-05-23T04:39:18.694Z,544.72
2023-05-23T04:40:21.040Z,571.42
2023-05-23T04:41:26.161Z,459.05
2023-05-23T04:42:29.664Z,531.63
2023-05-23T04:43:34.499Z,496.70
2023-05-23T04:44:37.701Z,523.95
2023-05-23T04:45:42.493Z,483.58
2023-05-23T04:46:45.800Z,507.58
2023-05-23T04:47:50.729Z,507.08
2023-05-23T04:48:53.552Z,518.53
2023-05-23T04:49:58.266Z,506.35
2023-05-23T04:51:02.396Z,491.83
2023-05-23T04:52:09.679Z,506.30
2023-05-23T04:53:11.788Z,470.60
2023-05-23T04:54:16.524Z,447.10
2023-05-23T04:55:20.239Z,439.98
2023-05-23T04:56:27.485Z,463.95
2023-05-23T04:57:29.638Z,422.65
2023-05-23T04:58:34.740Z,478.05
2023-05-23T04:59:38.472Z,459.98
2023-05-23T05:00:43.595Z,406.10
2023-05-23T05:01:46.092Z,421.98
2023-05-23T05:02:50.806Z,412.60
2023-05-23T05:03:53.103Z,385.38
2023-05-23T05:04:57.838Z,384.45
2023-05-23T05:05:59.937Z,407.15
2023-05-23T05:07:04.698Z,391.55
2023-05-23T05:08:09.390Z,408.60
2023-05-23T05:09:14.126Z,339.08
2023-05-23T05:10:18.105Z,359.75
2023-05-23T05:11:22.813Z,349.85
2023-05-23T05:12:24.895Z,348.60
2023-05-23T05:13:29.574Z,372.27
2023-05-23T05:14:31.751Z,333.60
2023-05-23T05:15:36.469Z,354.77
2023-05-23T05:16:38.612Z,336.17
2023-05-23T05:17:43.399Z,317.15
2023-05-23T05:18:45.697Z,326.05
2023-05-23T05:19:50.413Z,324.00
2023-05-23T05:20:55.152Z,372.95
2023-05-23T05:21:57.989Z,387.63
2023-05-23T05:23:03.128Z,379.88
2023-05-23T05:24:09.861Z,402.85
2023-05-23T05:25:14.620Z,307.20
2023-05-23T05:26:17.373Z,344.45
2023-05-23T05:27:22.046Z,376.00
2023-05-23T05:28:24.789Z,334.20
2023-05-23T05:29:29.688Z,355.23
2023-05-23T05:30:33.883Z,326.95
2023-05-23T05:31:38.900Z,304.73
2023-05-23T05:32:42.373Z,378.30
2023-05-23T05:33:47.043Z,323.63
2023-05-23T05:34:49.608Z,330.10
2023-05-23T05:35:54.844Z,346.92
2023-05-23T05:36:57.130Z,404.10
2023-05-23T05:38:02.796Z,367.52
2023-05-23T05:39:10.188Z,471.85
2023-05-23T05:40:12.867Z,345.50
2023-05-23T05:41:17.645Z,347.90
2023-05-23T05:42:19.790Z,348.75
2023-05-23T05:43:24.522Z,323.02
2023-05-23T05:44:29.407Z,331.83
2023-05-23T05:45:34.092Z,392.08
2023-05-23T05:46:36.234Z,295.60
2023-05-23T05:47:41.151Z,365.63
2023-05-23T05:48:45.912Z,433.13
2023-05-23T05:49:48.049Z,500.13
2023-05-23T05:50:52.809Z,827.17
2023-05-23T05:51:54.890Z,762.13
2023-05-23T05:52:59.594Z,897.22
2023-05-23T05:54:04.283Z,802.22
2023-05-23T05:55:11.580Z,650.40
2023-05-23T05:56:16.298Z,559.47
2023-05-23T05:57:18.392Z,444.48
2023-05-23T05:58:23.093Z,434.60
2023-05-23T05:59:25.845Z,455.90
2023-05-23T06:00:31.015Z,432.45
2023-05-23T06:01:35.076Z,404.75
2023-05-23T06:02:39.907Z,398.02
2023-05-23T06:03:44.997Z,450.58
2023-05-23T06:04:47.395Z,437.77
2023-05-23T06:05:52.151Z,483.73
2023-05-23T06:06:54.319Z,499.70
2023-05-23T06:07:59.038Z,459.55
2023-05-23T06:09:01.130Z,478.33
2023-05-23T06:10:05.851Z,467.88
2023-05-23T06:11:13.189Z,469.35
2023-05-23T06:12:15.401Z,418.85
2023-05-23T06:13:20.113Z,445.17
2023-05-23T06:14:22.371Z,473.85
2023-05-23T06:15:27.533Z,462.75
2023-05-23T06:16:29.677Z,403.98
2023-05-23T06:17:34.530Z,414.30
2023-05-23T06:18:36.687Z,471.27
2023-05-23T06:19:41.599Z,520.03
2023-05-23T06:20:43.775Z,501.77
2023-05-23T06:21:48.463Z,441.05
2023-05-23T06:22:50.652Z,512.55
2023-05-23T06:23:55.347Z,474.05
2023-05-23T06:24:57.418Z,451.02
2023-05-23T06:26:02.423Z,526.15
2023-05-23T06:27:07.251Z,533.90
2023-05-23T06:28:11.980Z,608.67
2023-05-23T06:29:14.135Z,491.77
2023-05-23T06:30:19.413Z,486.85
2023-05-23T06:31:21.717Z,542.20
2023-05-23T06:32:26.719Z,480.88
2023-05-23T06:33:31.748Z,505.20
2023-05-23T06:34:33.947Z,474.70
2023-05-23T06:35:38.735Z,457.92
2023-05-23T06:36:42.344Z,492.73
2023-05-23T06:37:48.604Z,469.25
2023-05-23T06:38:50.814Z,567.90
2023-05-23T06:39:55.565Z,461.77
2023-05-23T06:40:57.789Z,458.38
2023-05-23T06:42:02.735Z,550.08
2023-05-23T06:43:07.822Z,544.20
2023-05-23T06:44:12.562Z,518.58
2023-05-23T06:45:16.489Z,563.42
2023-05-23T06:46:21.833Z,458.33
2023-05-23T06:47:24.127Z,418.23
2023-05-23T06:48:28.842Z,518.60
2023-05-23T06:49:31.330Z,445.60
2023-05-23T06:50:36.065Z,446.63
2023-05-23T06:51:38.237Z,458.15
2023-05-23T06:52:43.042Z,495.05
2023-05-23T06:53:45.163Z,1045.00
2023-05-23T06:54:50.009Z,495.38
2023-05-23T06:55:54.681Z,1091.55
2023-05-23T06:56:57.393Z,974.55
2023-05-23T06:58:04.328Z,207.35
2023-05-23T06:59:11.616Z,237.00
2023-05-23T07:00:17.477Z,228.40
2023-05-23T07:01:22.282Z,204.85
2023-05-23T07:02:27.180Z,180.88
2023-05-23T07:03:29.302Z,180.00
2023-05-23T07:04:34.010Z,231.52
2023-05-23T07:05:39.293Z,186.25
2023-05-23T07:06:45.700Z,189.93
2023-05-23T07:07:47.789Z,247.75
2023-05-23T07:08:52.513Z,210.30
2023-05-23T07:09:54.749Z,182.15
2023-05-23T07:10:59.442Z,286.95
2023-05-23T07:12:04.172Z,196.95
2023-05-23T07:13:06.295Z,224.30
2023-05-23T07:14:13.708Z,301.05
2023-05-23T07:15:16.494Z,193.60
2023-05-23T07:16:21.662Z,178.57
2023-05-23T07:17:23.919Z,197.45
2023-05-23T07:18:28.695Z,165.48
2023-05-23T07:19:33.389Z,153.35
2023-05-23T07:20:38.102Z,224.05
2023-05-23T07:21:42.750Z,166.88
2023-05-23T07:22:47.421Z,177.05
2023-05-23T07:23:49.608Z,212.98
2023-05-23T07:24:54.298Z,177.98
2023-05-23T07:26:02.591Z,195.95
2023-05-23T07:27:08.302Z,274.92
2023-05-23T07:28:13.487Z,250.48
2023-05-23T07:29:20.967Z,222.98
2023-05-23T07:30:23.333Z,208.98
2023-05-23T07:31:28.083Z,189.95
2023-05-23T07:32:32.847Z,183.35
2023-05-23T07:33:37.711Z,234.85
2023-05-23T07:34:39.875Z,201.32
2023-05-23T07:35:44.610Z,195.13
2023-05-23T07:36:50.518Z,260.65
2023-05-23T07:37:55.531Z,198.98
2023-05-23T07:39:00.214Z,202.40
2023-05-23T07:40:04.980Z,269.83
2023-05-23T07:41:12.148Z,208.50
2023-05-23T07:42:17.247Z,249.45
2023-05-23T07:43:21.953Z,312.52
2023-05-23T07:44:29.340Z,188.45
2023-05-23T07:45:34.049Z,195.82
2023-05-23T07:46:36.489Z,235.88
2023-05-23T07:47:41.281Z,255.35
2023-05-23T07:48:43.411Z,191.82
2023-05-23T07:49:48.114Z,185.57
2023-05-23T07:50:50.316Z,202.25
2023-05-23T07:51:55.016Z,192.00
2023-05-23T07:52:59.698Z,191.02
2023-05-23T07:54:01.850Z,214.38
2023-05-23T07:55:07.023Z,233.25
2023-05-23T07:56:09.198Z,231.75
2023-05-23T07:57:16.826Z,271.83
2023-05-23T07:58:21.722Z,230.02
2023-05-23T07:59:27.165Z,278.77
2023-05-23T08:00:32.456Z,262.58
2023-05-23T08:01:34.866Z,196.48
2023-05-23T08:02:39.607Z,218.93
2023-05-23T08:03:44.355Z,251.50
2023-05-23T08:04:50.309Z,226.38
2023-05-23T08:05:55.040Z,216.73
2023-05-23T08:08:04.777Z,198.63
2023-05-23T08:09:10.124Z,231.27
2023-05-23T08:10:15.044Z,297.42
2023-05-23T08:11:19.726Z,263.08
2023-05-23T08:12:21.884Z,206.02
2023-05-23T08:13:26.978Z,244.35
2023-05-23T08:14:46.392Z,219.10
2023-05-23T08:15:55.929Z,219.20
2023-05-23T08:17:00.793Z,240.35
2023-05-23T08:18:06.328Z,210.95
2023-05-23T08:19:08.829Z,244.75
2023-05-23T08:20:15.075Z,255.50
2023-05-23T08:21:17.307Z,238.75
2023-05-23T08:22:22.035Z,255.85
2023-05-23T08:23:26.810Z,220.70
2023-05-23T08:24:30.537Z,234.35
2023-05-23T08:25:35.262Z,275.60
2023-05-23T08:26:40.013Z,200.95
2023-05-23T08:27:44.696Z,204.13
2023-05-23T08:28:49.739Z,286.83
2023-05-23T08:29:57.074Z,211.38
2023-05-23T08:31:01.981Z,189.32
2023-05-23T08:32:04.478Z,220.55
2023-05-23T08:33:09.276Z,220.77
2023-05-23T08:34:14.793Z,253.63
2023-05-23T08:35:16.884Z,261.05
2023-05-23T08:36:21.709Z,247.32
2023-05-23T08:37:26.480Z,202.02
2023-05-23T08:38:28.584Z,263.20
2023-05-23T08:39:33.318Z,242.93
2023-05-23T08:40:36.977Z,220.43
2023-05-23T08:41:42.604Z,202.68
2023-05-23T08:42:44.897Z,227.82
2023-05-23T08:43:50.104Z,239.25
2023-05-23T08:44:57.562Z,252.27
2023-05-23T08:45:59.885Z,230.73
2023-05-23T08:47:08.304Z,255.57
2023-05-23T08:48:16.641Z,255.57
2023-05-23T08:49:18.923Z,239.68
2023-05-23T08:50:23.989Z,279.90
2023-05-23T08:51:31.859Z,232.35
2023-05-23T08:52:38.115Z,225.88
2023-05-23T08:53:43.075Z,234.98
2023-05-23T08:54:48.065Z,275.05
2023-05-23T08:55:51.780Z,214.65
2023-05-23T08:56:56.678Z,262.85
2023-05-23T08:57:59.626Z,236.85
2023-05-23T08:59:04.875Z,194.40
2023-05-23T09:00:15.146Z,225.05
2023-05-23T09:01:21.339Z,242.93
2023-05-23T09:02:23.870Z,205.05
2023-05-23T09:03:29.970Z,240.82
2023-05-23T09:04:33.200Z,203.35
2023-05-23T09:05:37.958Z,208.68
2023-05-23T09:06:42.718Z,241.48
2023-05-23T09:07:49.791Z,210.57
2023-05-23T09:08:52.240Z,207.82
2023-05-23T09:09:57.019Z,212.30
2023-05-23T09:11:02.976Z,240.27
2023-05-23T09:12:08.353Z,190.15
2023-05-23T09:13:10.672Z,291.33
2023-05-23T09:14:15.706Z,251.55
2023-05-23T09:15:24.094Z,212.25
2023-05-23T09:16:36.067Z,212.40
2023-05-23T09:17:39.409Z,203.35
2023-05-23T09:18:46.600Z,193.43
2023-05-23T09:19:51.907Z,202.27
2023-05-23T09:20:56.902Z,184.70
2023-05-23T09:21:59.193Z,198.88
2023-05-23T09:23:08.676Z,206.10
2023-05-23T09:24:11.068Z,234.73
2023-05-23T09:25:15.992Z,224.77
2023-05-23T09:26:18.132Z,234.70
2023-05-23T09:27:22.973Z,216.57
2023-05-23T09:28:25.210Z,206.00
2023-05-23T09:29:31.026Z,163.80
2023-05-23T09:30:38.749Z,168.43
2023-05-23T09:31:41.024Z,193.52
2023-05-23T09:32:46.318Z,191.40
2023-05-23T09:33:52.457Z,174.50
2023-05-23T09:34:58.533Z,186.10
2023-05-23T09:36:03.265Z,174.82
2023-05-23T09:37:06.239Z,161.32
2023-05-23T09:38:11.615Z,179.90
2023-05-23T09:39:16.642Z,197.48
2023-05-23T09:40:19.080Z,198.73
2023-05-23T09:41:25.316Z,208.68
2023-05-23T09:42:35.891Z,172.93
2023-05-23T09:43:38.616Z,176.80
2023-05-23T09:44:45.052Z,233.00
2023-05-23T09:45:52.314Z,166.88
2023-05-23T09:46:56.986Z,182.57
2023-05-23T09:47:59.223Z,206.48
2023-05-23T09:49:03.996Z,211.57
2023-05-23T09:50:09.035Z,224.68
2023-05-23T09:51:13.761Z,245.75
2023-05-23T09:52:15.903Z,242.98
2023-05-23T09:53:22.814Z,215.90
2023-05-23T09:54:25.152Z,313.90
2023-05-23T09:55:30.160Z,239.70
2023-05-23T09:56:34.358Z,211.90
2023-05-23T09:57:43.573Z,295.42
2023-05-23T09:58:48.573Z,208.27
2023-05-23T09:59:57.058Z,225.93
2023-05-23T10:01:04.092Z,253.43
2023-05-23T10:02:11.068Z,185.85
2023-05-23T10:03:14.563Z,240.30
2023-05-23T10:04:24.476Z,232.32
2023-05-23T10:05:36.795Z,234.98
2023-05-23T10:06:47.936Z,190.98
2023-05-23T10:07:50.971Z,235.60
2023-05-23T10:09:00.248Z,240.93
2023-05-23T10:10:09.577Z,195.68
2023-05-23T10:12:05.822Z,226.00
2023-05-23T10:13:11.247Z,201.82
2023-05-23T10:14:13.799Z,223.48
2023-05-23T10:15:19.923Z,232.43
2023-05-23T10:16:29.318Z,253.43
2023-05-23T10:17:43.105Z,226.52
2023-05-23T10:18:45.994Z,263.08
2023-05-23T10:19:56.066Z,209.82
2023-05-23T10:21:05.898Z,249.32
2023-05-23T10:22:13.811Z,181.73
2023-05-23T10:23:17.691Z,437.67
2023-05-23T10:24:23.233Z,373.52
2023-05-23T10:25:26.098Z,391.27
2023-05-23T10:26:31.394Z,237.90
2023-05-23T10:27:36.298Z,314.98
2023-05-23T10:28:39.618Z,199.63
2023-05-23T10:29:44.756Z,195.57
2023-05-23T10:30:49.509Z,204.63
2023-05-23T10:31:56.647Z,372.05
2023-05-23T10:33:02.493Z,220.68
2023-05-23T10:34:14.645Z,165.18
2023-05-23T10:35:27.109Z,212.50
2023-05-23T10:36:38.687Z,206.05
2023-05-23T10:37:49.754Z,213.50
2023-05-23T10:39:01.958Z,177.40
2023-05-23T10:40:11.027Z,178.25
2023-05-23T10:41:21.900Z,232.70
2023-05-23T10:42:33.648Z,353.08
2023-05-23T10:43:47.648Z,355.13
2023-05-23T10:44:49.801Z,420.02
2023-05-23T10:45:54.663Z,424.27
2023-05-23T10:47:04.702Z,404.95
2023-05-23T10:48:23.312Z,448.48
2023-05-23T10:49:39.079Z,419.23
2023-05-23T10:50:44.026Z,327.13
2023-05-23T10:51:51.054Z,308.02
2023-05-23T10:52:56.588Z,332.52
2023-05-23T10:53:58.832Z,304.80
2023-05-23T10:55:03.728Z,280.55
2023-05-23T10:56:10.185Z,299.73
2023-05-23T10:57:19.596Z,178.57
2023-05-23T10:58:23.582Z,210.65
2023-05-23T10:59:31.213Z,212.38
2023-05-23T11:00:33.549Z,213.82
2023-05-23T11:01:42.593Z,214.93
2023-05-23T11:02:57.578Z,231.65
2023-05-23T11:04:06.023Z,235.20
2023-05-23T11:05:24.873Z,237.32
2023-05-23T11:06:35.764Z,768.20
2023-05-23T11:07:40.514Z,518.05
2023-05-23T11:08:48.918Z,969.60
2023-05-23T11:10:04.689Z,613.63
2023-05-23T11:11:09.487Z,629.22
2023-05-23T11:12:14.284Z,527.13
2023-05-23T11:13:16.365Z,524.00
2023-05-23T11:14:21.585Z,526.08
2023-05-23T11:15:26.746Z,482.52
2023-05-23T11:16:30.443Z,581.35
2023-05-23T11:17:36.254Z,598.95
2023-05-23T11:18:41.026Z,586.45
2023-05-23T11:19:59.915Z,708.90
2023-05-23T11:21:06.023Z,561.28
2023-05-23T11:22:09.709Z,516.38
2023-05-23T11:23:15.516Z,495.02
2023-05-23T11:24:17.847Z,538.72
2023-05-23T11:25:23.218Z,512.42
2023-05-23T11:26:33.052Z,547.42
2023-05-23T11:27:39.350Z,514.40
2023-05-23T11:28:59.233Z,508.67
2023-05-23T11:30:06.585Z,559.22
2023-05-23T11:31:11.941Z,545.88
2023-05-23T11:32:17.273Z,569.63
2023-05-23T11:33:22.676Z,594.67
2023-05-23T11:34:28.529Z,657.33
2023-05-23T11:35:33.893Z,550.78
2023-05-23T11:36:39.165Z,433.77
2023-05-23T11:37:44.222Z,632.67
2023-05-23T11:38:46.606Z,512.95
2023-05-23T11:39:51.308Z,876.17
2023-05-23T11:40:56.229Z,866.53
2023-05-23T11:42:02.115Z,1005.67
2023-05-23T11:43:08.094Z,1111.07
2023-05-23T11:44:14.077Z,1041.00
2023-05-23T11:45:18.736Z,963.60
2023-05-23T11:46:21.779Z,888.40
2023-05-23T11:47:26.554Z,849.45
2023-05-23T11:48:31.332Z,819.80
2023-05-23T11:49:38.193Z,1165.03
2023-05-23T11:50:50.985Z,849.97
2023-05-23T11:51:53.526Z,775.75
2023-05-23T11:52:58.618Z,748.00
2023-05-23T11:54:01.704Z,738.15
2023-05-23T11:55:07.009Z,762.67
2023-05-23T11:56:11.821Z,798.47
2023-05-23T11:57:14.396Z,786.00
2023-05-23T11:58:19.448Z,791.10
2023-05-23T11:59:26.348Z,1174.65
2023-05-23T12:00:32.666Z,1196.88
2023-05-23T12:01:37.524Z,1183.30
2023-05-23T12:02:43.275Z,1173.15
2023-05-23T12:03:47.176Z,1105.45
2023-05-23T12:04:54.800Z,1053.20
2023-05-23T12:05:57.034Z,467.38
2023-05-23T12:07:01.766Z,412.73
2023-05-23T12:08:04.178Z,407.85
2023-05-23T12:09:09.099Z,304.48
2023-05-23T12:10:11.742Z,305.60
2023-05-23T12:11:17.850Z,297.52
2023-05-23T12:12:23.514Z,334.25
2023-05-23T12:13:29.460Z,480.80
2023-05-23T12:14:34.005Z,624.50
2023-05-23T12:15:36.160Z,647.03
2023-05-23T12:16:40.923Z,451.60
2023-05-23T12:17:45.448Z,526.08
2023-05-23T12:18:50.373Z,276.95
2023-05-23T12:19:58.324Z,265.77
2023-05-23T12:21:06.054Z,266.17
2023-05-23T12:22:11.058Z,315.08
2023-05-23T12:23:18.978Z,467.50
2023-05-23T12:24:25.252Z,528.53
2023-05-23T12:25:27.396Z,441.13
2023-05-23T12:26:32.126Z,471.45
2023-05-23T12:27:38.232Z,430.77
2023-05-23T12:28:45.409Z,349.85
2023-05-23T12:29:51.893Z,373.77
2023-05-23T12:30:56.602Z,428.77
2023-05-23T12:31:59.714Z,385.77
2023-05-23T12:33:12.069Z,353.27
2023-05-23T12:34:14.304Z,401.20
2023-05-23T12:35:22.065Z,372.73
2023-05-23T12:36:25.547Z,375.90
2023-05-23T12:37:31.041Z,419.25
2023-05-23T12:38:38.127Z,469.75
2023-05-23T12:39:46.595Z,363.77
2023-05-23T12:41:11.077Z,376.15
2023-05-23T12:42:15.765Z,578.13
2023-05-23T12:43:18.046Z,600.67
2023-05-23T12:44:22.733Z,597.67
2023-05-23T12:45:34.445Z,561.08
2023-05-23T12:46:36.720Z,560.65
2023-05-23T12:47:41.590Z,517.75
2023-05-23T12:48:43.796Z,642.53
2023-05-23T12:49:49.048Z,664.28
2023-05-23T12:50:56.415Z,608.90
2023-05-23T12:51:58.640Z,761.70
2023-05-23T12:53:03.413Z,589.30
2023-05-23T12:54:05.679Z,591.40
2023-05-23T12:55:11.863Z,581.08
2023-05-23T12:56:16.638Z,965.58
2023-05-23T12:57:21.378Z,1166.25
2023-05-23T12:58:23.866Z,1172.22
2023-05-23T12:59:28.563Z,402.60
2023-05-23T13:00:30.815Z,393.73
2023-05-23T13:01:36.072Z,411.60
2023-05-23T13:02:39.018Z,382.83
2023-05-23T13:03:43.831Z,372.98
2023-05-23T13:04:48.576Z,419.15
2023-05-23T13:05:54.038Z,560.35
2023-05-23T13:07:01.302Z,1023.60
2023-05-23T13:08:03.762Z,1180.75
2023-05-23T13:09:08.593Z,1164.43
2023-05-23T13:10:11.498Z,1060.28
2023-05-23T13:11:16.264Z,1163.07
2023-05-23T13:12:21.252Z,1181.13
2023-05-23T13:13:23.525Z,1188.90
2023-05-23T13:14:28.345Z,279.10
2023-05-23T13:15:33.205Z,310.98
2023-05-23T13:16:39.576Z,354.77
2023-05-23T13:17:48.056Z,312.85
2023-05-23T13:18:55.843Z,272.73
2023-05-23T13:19:58.004Z,321.10
2023-05-23T13:21:03.044Z,326.25
2023-05-23T13:22:16.061Z,227.60
2023-05-23T15:53:40.183Z,573.40
2023-05-23T15:55:05.017Z,324.45
2023-05-23T15:56:34.158Z,276.15
2023-05-23T15:58:12.912Z,78.03
2023-05-23T15:59:40.258Z,312.70
2023-05-23T16:00:47.824Z,218.02
2023-05-23T16:02:04.942Z,36.47
2023-05-23T16:03:11.984Z,89.65
2023-05-23T16:06:14.541Z,69.40
2023-05-23T16:07:43.884Z,34.05
2023-05-23T16:09:17.572Z,118.22